Time;durP1;ratioP1;P1;durP2;ratioP2;P2;SDS_P1;SDS_P2;PMS_P1;PMS_P2;Temp;Humidity;BMP_temperature;BMP_pressure;BME280_temperature;BME280_humidity;BME280_pressure;Samples;Min_cycle;Max_cycle;Signal;HPM_P1;HPM_P2
2022/02/08 00:01:51;;;;;;;3.75;1.65;;;1.50;61.30;;;;;;5067944;28;20195;-68
2022/02/08 00:04:18;;;;;;;4.93;1.95;;;1.40;61.40;;;;;;5070910;28;20290;-68
2022/02/08 00:06:47;;;;;;;6.07;1.50;;;1.40;61.80;;;;;;5070602;28;20186;-67
2022/02/08 00:09:16;;;;;;;3.67;1.40;;;1.30;61.60;;;;;;5070602;28;20185;-68
2022/02/08 00:11:46;;;;;;;7.00;1.60;;;1.20;61.80;;;;;;5070709;28;20197;-68
2022/02/08 00:14:15;;;;;;;7.85;2.00;;;1.20;62.00;;;;;;5070137;28;20186;-69
2022/02/08 00:16:42;;;;;;;5.43;1.95;;;1.20;62.50;;;;;;5069969;28;20193;-68
2022/02/08 00:19:09;;;;;;;6.75;3.25;;;1.10;63.00;;;;;;5070715;28;20244;-68
2022/02/08 00:21:36;;;;;;;4.65;1.80;;;1.20;63.90;;;;;;5070663;28;20217;-68
2022/02/08 00:24:04;;;;;;;2.55;1.25;;;1.10;63.40;;;;;;5070114;28;20278;-68
2022/02/08 00:26:31;;;;;;;6.63;1.60;;;1.20;64.10;;;;;;5070674;28;20663;-68
2022/02/08 00:28:59;;;;;;;6.32;1.38;;;1.20;64.30;;;;;;5069784;28;20264;-68
2022/02/08 00:31:27;;;;;;;4.75;1.50;;;1.20;64.10;;;;;;5070602;28;20300;-68
2022/02/08 00:33:54;;;;;;;4.57;1.35;;;1.30;64.10;;;;;;5067791;28;20190;-68
2022/02/08 00:36:22;;;;;;;5.82;1.80;;;1.20;64.30;;;;;;5070469;28;20193;-68
2022/02/08 00:38:51;;;;;;;9.23;1.67;;;1.30;64.40;;;;;;5070044;28;20245;-68
2022/02/08 00:41:18;;;;;;;3.88;2.22;;;1.30;64.30;;;;;;5070417;28;20197;-71
2022/02/08 00:43:51;;;;;;;3.60;1.05;;;1.30;64.30;;;;;;5065874;28;20201;-68
2022/02/08 00:46:27;;;;;;;7.85;1.60;;;1.30;63.60;;;;;;5070371;28;20206;-68
2022/02/08 00:48:58;;;;;;;4.80;1.35;;;1.30;63.50;;;;;;5070542;28;20192;-68
2022/02/08 00:51:27;;;;;;;4.00;1.55;;;1.20;63.90;;;;;;5071091;28;20551;-69
2022/02/08 00:53:55;;;;;;;3.47;1.35;;;1.20;64.20;;;;;;5071677;28;20185;-68
2022/02/08 00:56:22;;;;;;;12.25;2.15;;;1.20;64.30;;;;;;5072030;28;20189;-68
2022/02/08 00:58:50;;;;;;;5.78;1.20;;;1.20;64.40;;;;;;5071533;28;20331;-68
2022/02/08 01:01:17;;;;;;;6.32;1.77;;;1.10;64.30;;;;;;5071848;28;20228;-68
2022/02/08 01:03:44;;;;;;;5.07;1.80;;;1.20;64.60;;;;;;5071254;28;20190;-68
2022/02/08 01:06:13;;;;;;;3.58;0.90;;;1.20;64.50;;;;;;5071619;28;20651;-68
2022/02/08 01:08:41;;;;;;;5.55;1.58;;;1.20;64.10;;;;;;5071427;28;20185;-68
2022/02/08 01:11:12;;;;;;;2.28;0.90;;;1.20;64.40;;;;;;5072058;28;20193;-69
2022/02/08 01:13:41;;;;;;;3.40;1.30;;;1.20;64.30;;;;;;5071490;28;20664;-68
2022/02/08 01:16:09;;;;;;;3.72;1.35;;;1.20;63.70;;;;;;5071759;28;20280;-68
2022/02/08 01:18:40;;;;;;;4.78;1.35;;;1.30;63.80;;;;;;5071465;28;20209;-72
2022/02/08 01:21:08;;;;;;;5.00;0.90;;;1.30;63.80;;;;;;5071798;28;20641;-69
2022/02/08 01:23:36;;;;;;;3.95;1.10;;;1.20;63.70;;;;;;5071152;28;20178;-68
2022/02/08 01:26:11;;;;;;;4.80;1.42;;;1.10;63.40;;;;;;5071784;28;20197;-68
2022/02/08 01:28:45;;;;;;;3.25;1.02;;;1.00;63.30;;;;;;5071512;28;20275;-68
2022/02/08 01:31:15;;;;;;;3.88;1.05;;;1.00;63.60;;;;;;5071652;28;20228;-68
2022/02/08 01:36:46;;;;;;;4.97;1.80;;;1.10;62.70;;;;;;5071707;28;20202;-68
2022/02/08 01:39:22;;;;;;;4.45;2.08;;;1.00;62.70;;;;;;5051537;28;20217;-68
2022/02/08 01:44:39;;;;;;;3.70;1.13;;;0.70;63.30;;;;;;5040972;28;20196;-68
2022/02/08 01:47:24;;;;;;;3.00;1.05;;;0.60;63.50;;;;;;5068020;28;20269;-68
2022/02/08 01:50:10;;;;;;;4.43;0.95;;;0.70;63.50;;;;;;5071424;28;20189;-68
2022/02/08 01:52:38;;;;;;;3.25;1.10;;;0.60;63.40;;;;;;5069674;28;20209;-68
2022/02/08 01:55:10;;;;;;;3.53;0.80;;;0.50;63.60;;;;;;5071209;28;20190;-68
2022/02/08 01:57:38;;;;;;;2.63;1.00;;;0.60;64.10;;;;;;5070585;28;20185;-68
2022/02/08 02:00:07;;;;;;;2.45;0.90;;;0.60;63.00;;;;;;5071471;28;20558;-68
2022/02/08 02:02:34;;;;;;;6.38;1.30;;;0.60;63.30;;;;;;5074761;28;20641;-68
2022/02/08 02:05:02;;;;;;;1.85;0.88;;;0.60;62.80;;;;;;5075292;28;20186;-68
2022/02/08 02:07:29;;;;;;;2.53;1.20;;;0.60;62.70;;;;;;5074492;28;20653;-68
2022/02/08 02:09:57;;;;;;;4.40;0.77;;;0.60;63.30;;;;;;5074347;28;20644;-69
2022/02/08 02:12:25;;;;;;;2.63;1.10;;;0.70;63.50;;;;;;5074537;28;20189;-68
2022/02/08 02:14:52;;;;;;;2.42;1.20;;;0.70;63.70;;;;;;5074853;28;20637;-68
2022/02/08 02:17:19;;;;;;;2.88;1.35;;;0.80;63.40;;;;;;5073966;28;20201;-68
2022/02/08 02:19:47;;;;;;;3.67;1.52;;;0.80;63.50;;;;;;5074560;28;20621;-67
2022/02/08 02:22:14;;;;;;;2.25;1.02;;;0.90;63.20;;;;;;5074552;28;20269;-68
2022/02/08 02:24:43;;;;;;;2.55;1.30;;;0.90;63.70;;;;;;5074973;28;20194;-68
2022/02/08 02:27:11;;;;;;;5.93;1.15;;;0.90;63.70;;;;;;5073859;28;20553;-68
2022/02/08 02:29:38;;;;;;;6.25;1.63;;;0.90;63.90;;;;;;5074434;28;20190;-68
2022/02/08 02:32:06;;;;;;;10.50;1.70;;;1.00;63.70;;;;;;5073924;28;20263;-68
2022/02/08 02:34:33;;;;;;;3.45;1.42;;;1.10;63.30;;;;;;5074630;28;20198;-68
2022/02/08 02:37:02;;;;;;;2.83;0.90;;;1.10;63.20;;;;;;5073840;28;20239;-68
2022/02/08 02:39:30;;;;;;;2.72;0.93;;;1.10;63.20;;;;;;5074380;28;20271;-68
2022/02/08 02:41:59;;;;;;;9.35;1.08;;;1.10;63.30;;;;;;5073257;28;20270;-68
2022/02/08 02:44:26;;;;;;;1.73;0.90;;;1.00;63.30;;;;;;5073844;28;20640;-68
2022/02/08 02:46:53;;;;;;;4.55;2.60;;;1.10;63.10;;;;;;5074425;28;20194;-68
2022/02/08 02:49:26;;;;;;;3.85;1.38;;;1.20;63.10;;;;;;5073774;28;20197;-68
2022/02/08 02:51:52;;;;;;;2.53;1.08;;;1.20;63.10;;;;;;5074195;28;20193;-67
2022/02/08 02:54:21;;;;;;;3.03;1.30;;;1.20;62.30;;;;;;5073436;28;20186;-68
2022/02/08 02:56:49;;;;;;;3.45;1.35;;;1.20;62.30;;;;;;5074082;28;20189;-68
2022/02/08 02:59:20;;;;;;;6.53;1.35;;;1.20;62.10;;;;;;5073839;28;20742;-68
2022/02/08 03:02:11;;;;;;;4.55;1.25;;;1.20;62.30;;;;;;5073707;28;20231;-68
2022/02/08 03:04:49;;;;;;;4.90;1.15;;;1.20;62.40;;;;;;5073433;28;20213;-68
2022/02/08 03:18:36;;;;;;;4.95;2.55;;;1.30;62.70;;;;;;5060415;28;20687;-68
2022/02/08 03:21:04;;;;;;;6.32;2.60;;;1.30;62.50;;;;;;5073714;28;20197;-68
2022/02/08 03:23:32;;;;;;;5.50;1.98;;;1.30;62.30;;;;;;5073600;28;20186;-68
2022/02/08 03:26:00;;;;;;;3.13;1.27;;;1.40;62.10;;;;;;5073755;28;20262;-68
2022/02/08 03:28:27;;;;;;;3.35;1.30;;;1.40;61.70;;;;;;5072928;28;20526;-68
2022/02/08 03:30:56;;;;;;;5.78;1.30;;;1.40;61.30;;;;;;5073297;28;20192;-68
2022/02/08 03:33:25;;;;;;;3.80;1.35;;;1.50;60.90;;;;;;5072890;28;20707;-67
2022/02/08 03:35:54;;;;;;;4.43;1.30;;;1.40;61.20;;;;;;5073191;28;20296;-68
2022/02/08 03:38:28;;;;;;;2.70;1.10;;;1.40;61.10;;;;;;5073002;28;20220;-67
2022/02/08 03:40:56;;;;;;;4.55;1.83;;;1.40;61.50;;;;;;5073334;28;20200;-68
2022/02/08 03:43:32;;;;;;;4.25;1.52;;;1.40;62.00;;;;;;5072825;28;20193;-68
2022/02/08 03:46:06;;;;;;;2.58;1.60;;;1.30;62.00;;;;;;5073534;28;20193;-67
2022/02/08 03:48:35;;;;;;;2.25;1.30;;;1.20;62.00;;;;;;5072705;28;20185;-68
2022/02/08 03:51:11;;;;;;;4.45;1.10;;;1.20;62.10;;;;;;5072316;28;20240;-68
2022/02/08 03:53:41;;;;;;;3.55;1.60;;;1.20;61.60;;;;;;5073166;28;20602;-68
2022/02/08 03:56:08;;;;;;;2.95;2.00;;;1.20;61.50;;;;;;5072839;28;20209;-69
2022/02/08 03:58:36;;;;;;;4.28;1.80;;;1.30;61.10;;;;;;5073016;28;20262;-68
2022/02/08 04:01:42;;;;;;;2.38;1.27;;;1.20;61.00;;;;;;5072317;28;20185;-68
2022/02/08 04:06:56;;;;;;;3.38;1.35;;;1.40;61.10;;;;;;5072797;28;20296;-67
2022/02/08 04:09:23;;;;;;;3.17;1.33;;;1.50;60.30;;;;;;5072526;28;20192;-68
2022/02/08 04:11:58;;;;;;;2.53;1.10;;;1.50;60.30;;;;;;5072971;28;20204;-68
2022/02/08 04:14:34;;;;;;;2.17;1.10;;;1.60;60.30;;;;;;5072357;28;20673;-68
2022/02/08 04:17:12;;;;;;;5.43;1.30;;;1.60;60.50;;;;;;5071343;28;20268;-72
2022/02/08 04:19:50;;;;;;;3.88;1.25;;;1.70;60.90;;;;;;5072542;28;20296;-70
2022/02/08 04:33:54;;;;;;;4.70;1.42;;;1.70;60.30;;;;;;5058269;28;20217;-68
2022/02/08 04:36:43;;;;;;;3.20;1.08;;;1.80;58.90;;;;;;5072360;28;20198;-68
2022/02/08 04:39:24;;;;;;;3.25;0.70;;;1.70;59.00;;;;;;5072503;28;20270;-68
2022/02/08 04:42:01;;;;;;;2.17;0.90;;;1.80;58.20;;;;;;5071968;28;20612;-70
2022/02/08 04:44:36;;;;;;;3.97;1.00;;;1.70;57.60;;;;;;5052186;28;20193;-68
2022/02/08 04:47:11;;;;;;;2.72;0.93;;;1.70;57.70;;;;;;5053511;28;20201;-68
2022/02/08 04:49:39;;;;;;;3.75;1.15;;;1.70;57.10;;;;;;5072128;28;20188;-68
2022/02/08 04:52:10;;;;;;;2.08;0.70;;;1.70;57.10;;;;;;5072041;28;20589;-69
2022/02/08 04:54:46;;;;;;;2.67;1.05;;;1.70;56.90;;;;;;5072381;28;20556;-68
2022/02/08 04:57:19;;;;;;;3.15;0.95;;;1.80;56.60;;;;;;5071593;28;20193;-68
2022/02/08 05:28:06;;;;;;;3.42;1.20;;;2.30;55.60;;;;;;5071995;28;20236;-68
2022/02/08 05:35:56;;;;;;;1.80;1.00;;;2.40;53.50;;;;;;5072906;28;20350;-68
2022/02/08 05:44:08;;;;;;;11.13;1.30;;;2.50;52.50;;;;;;5073002;28;20193;-68
2022/02/08 05:49:40;;;;;;;1.90;0.82;;;2.50;51.30;;;;;;5055718;28;20294;-68
2022/02/08 05:52:33;;;;;;;1.40;0.70;;;2.60;51.20;;;;;;5059101;28;20182;-68
2022/02/08 05:55:02;;;;;;;3.15;0.80;;;2.60;50.90;;;;;;5075428;28;20189;-72
2022/02/08 05:57:29;;;;;;;9.93;3.00;;;2.60;50.50;;;;;;5074072;28;20582;-68
2022/02/08 05:59:56;;;;;;;15.52;14.20;;;2.60;50.70;;;;;;5074935;28;20283;-69
2022/02/08 06:02:24;;;;;;;12.75;10.00;;;2.60;51.30;;;;;;5075487;28;20193;-68
2022/02/08 06:04:51;;;;;;;5.50;2.88;;;2.70;52.40;;;;;;5075202;28;20193;-68
2022/02/08 06:07:21;;;;;;;3.22;1.60;;;2.80;53.10;;;;;;5075332;28;20284;-68
2022/02/08 06:09:52;;;;;;;2.80;1.42;;;2.80;53.30;;;;;;5074845;28;20186;-69
2022/02/08 06:12:23;;;;;;;3.60;1.50;;;2.90;54.10;;;;;;5075116;28;20189;-68
2022/02/08 06:14:56;;;;;;;4.70;1.75;;;2.90;54.00;;;;;;5075085;28;20236;-68
2022/02/08 06:17:23;;;;;;;3.72;1.17;;;3.00;54.10;;;;;;5075296;28;20768;-68
2022/02/08 06:19:50;;;;;;;4.70;1.02;;;3.00;54.00;;;;;;5074427;28;20618;-69
2022/02/08 06:22:18;;;;;;;3.45;1.25;;;3.00;51.80;;;;;;5074800;28;20259;-68
2022/02/08 06:24:45;;;;;;;8.30;1.58;;;3.00;51.70;;;;;;5074702;28;20189;-68
2022/02/08 06:27:12;;;;;;;2.80;1.90;;;3.10;52.10;;;;;;5075109;28;20680;-68
2022/02/08 06:29:40;;;;;;;5.43;1.70;;;3.10;52.10;;;;;;5074101;28;20212;-68
2022/02/08 06:32:08;;;;;;;4.82;2.45;;;3.20;52.30;;;;;;5074337;28;20734;-69
2022/02/08 06:34:36;;;;;;;14.00;2.60;;;3.20;52.20;;;;;;5055228;28;20190;-68
2022/02/08 06:37:09;;;;;;;2.55;1.45;;;3.20;52.60;;;;;;5055311;28;20194;-68
2022/02/08 06:39:37;;;;;;;2.78;1.50;;;3.30;52.80;;;;;;5074713;28;20217;-69
2022/02/08 06:42:05;;;;;;;1.90;1.05;;;3.30;52.50;;;;;;5075095;28;20235;-69
2022/02/08 06:44:32;;;;;;;2.55;1.23;;;3.40;52.80;;;;;;5074433;28;20192;-68
2022/02/08 06:47:00;;;;;;;5.10;1.77;;;3.40;52.90;;;;;;5073775;28;20963;-68
2022/02/08 06:49:28;;;;;;;5.20;2.90;;;3.40;53.10;;;;;;5073919;28;20269;-68
2022/02/08 06:51:55;;;;;;;4.85;4.13;;;3.40;53.10;;;;;;5074976;28;20572;-68
2022/02/08 06:54:22;;;;;;;2.60;1.02;;;3.40;53.00;;;;;;5074260;28;20201;-68
2022/02/08 06:56:50;;;;;;;6.65;3.47;;;3.40;52.30;;;;;;5074947;28;20193;-68
2022/02/08 06:59:18;;;;;;;12.90;7.95;;;3.40;52.50;;;;;;5072786;28;20683;-68
2022/02/08 07:01:46;;;;;;;5.85;3.03;;;3.50;52.80;;;;;;5072228;28;20186;-71
2022/02/08 07:04:16;;;;;;;4.20;1.00;;;3.50;52.70;;;;;;5071871;28;20194;-68
2022/02/08 07:06:43;;;;;;;11.65;5.05;;;3.60;52.10;;;;;;5074747;27;20221;-69
2022/02/08 07:09:11;;;;;;;89.75;41.75;;;3.60;51.70;;;;;;5072872;28;20247;-68
2022/02/08 07:11:44;;;;;;;10.13;6.45;;;3.60;51.70;;;;;;5072780;28;21437;-68
2022/02/08 07:14:11;;;;;;;5.85;2.65;;;3.70;51.50;;;;;;5072336;28;20194;-69
2022/02/08 07:16:38;;;;;;;6.65;3.40;;;3.70;51.10;;;;;;5068509;28;20197;-68
2022/02/08 07:19:06;;;;;;;8.98;3.85;;;3.80;50.30;;;;;;5072693;28;20193;-68
2022/02/08 07:21:36;;;;;;;3.10;1.45;;;3.80;50.60;;;;;;5072359;28;20189;-68
2022/02/08 07:24:03;;;;;;;7.82;3.97;;;3.80;50.50;;;;;;5071990;28;20190;-69
2022/02/08 07:26:30;;;;;;;4.55;1.42;;;3.90;51.10;;;;;;5072616;28;20247;-68
2022/02/08 07:28:57;;;;;;;3.10;1.00;;;3.90;50.90;;;;;;5072593;28;20190;-68
2022/02/08 07:31:34;;;;;;;2.63;1.10;;;3.90;50.70;;;;;;5072278;28;20198;-68
2022/02/08 07:34:11;;;;;;;5.40;1.33;;;3.90;50.30;;;;;;5072238;28;20186;-68
2022/02/08 07:36:45;;;;;;;2.97;1.08;;;4.00;50.50;;;;;;5072319;28;20209;-68
2022/02/08 07:39:22;;;;;;;4.53;1.30;;;4.00;50.10;;;;;;5068813;28;20196;-67
2022/02/08 07:41:49;;;;;;;3.65;1.17;;;4.10;50.50;;;;;;5071857;28;20570;-69
2022/02/08 07:44:16;;;;;;;4.75;1.20;;;4.20;50.90;;;;;;5067566;28;20233;-68
2022/02/08 07:46:44;;;;;;;2.30;1.10;;;4.20;50.60;;;;;;5071857;28;20725;-68
2022/02/08 07:49:13;;;;;;;2.00;1.10;;;4.20;50.30;;;;;;5071024;28;20182;-68
2022/02/08 07:51:42;;;;;;;3.05;1.08;;;4.30;50.40;;;;;;5071006;28;20190;-69
2022/02/08 07:54:11;;;;;;;3.50;1.63;;;4.30;50.00;;;;;;5071847;28;20544;-68
2022/02/08 07:56:38;;;;;;;3.95;1.30;;;4.30;49.90;;;;;;5062264;28;20685;-68
2022/02/08 07:59:05;;;;;;;3.22;1.90;;;4.40;50.10;;;;;;5051607;28;20271;-70
2022/02/08 08:01:33;;;;;;;7.70;3.38;;;4.40;49.20;;;;;;5048953;28;20238;-68
2022/02/08 08:04:00;;;;;;;6.43;1.60;;;4.40;49.60;;;;;;5051783;28;20198;-68
2022/02/08 08:06:27;;;;;;;2.85;0.90;;;4.40;47.30;;;;;;5051610;28;20603;-68
2022/02/08 08:08:56;;;;;;;3.78;0.80;;;4.30;46.80;;;;;;5050913;28;20218;-71
2022/02/08 08:11:23;;;;;;;2.50;1.25;;;4.30;46.60;;;;;;5047385;28;20187;-68
2022/02/08 08:13:59;;;;;;;3.88;1.50;;;4.30;46.70;;;;;;5051214;28;20668;-68
2022/02/08 08:16:39;;;;;;;2.60;1.25;;;4.30;47.00;;;;;;5050352;28;20192;-69
2022/02/08 08:19:20;;;;;;;7.40;3.10;;;4.30;46.70;;;;;;5051030;28;20190;-68
2022/02/08 08:21:47;;;;;;;8.32;1.50;;;4.30;46.10;;;;;;5044387;28;20205;-68
2022/02/08 08:24:17;;;;;;;3.30;1.23;;;4.40;46.80;;;;;;5049801;28;20196;-68
2022/02/08 08:26:44;;;;;;;3.35;0.82;;;4.40;46.50;;;;;;5051219;28;20199;-68
2022/02/08 08:29:11;;;;;;;3.15;0.95;;;4.50;46.80;;;;;;5050497;28;20621;-68
2022/02/08 08:31:38;;;;;;;3.70;1.20;;;4.60;46.80;;;;;;5047483;28;20183;-68
2022/02/08 08:34:06;;;;;;;5.72;1.08;;;4.70;46.90;;;;;;5051014;28;20206;-68
2022/02/08 08:36:34;;;;;;;2.20;0.80;;;4.70;45.80;;;;;;5050325;28;20194;-68
2022/02/08 08:39:03;;;;;;;5.15;1.52;;;4.70;45.30;;;;;;5048611;28;20645;-68
2022/02/08 08:41:37;;;;;;;4.07;1.20;;;4.60;45.20;;;;;;5051123;28;20324;-68
2022/02/08 08:44:39;;;;;;;2.45;1.23;;;4.70;45.60;;;;;;5050612;28;20220;-69
2022/02/08 08:50:07;;;;;;;1.77;0.90;;;4.70;46.10;;;;;;5025635;28;20222;-68
2022/02/08 08:52:40;;;;;;;2.17;1.20;;;4.80;46.70;;;;;;5050560;28;20186;-71
2022/02/08 08:55:08;;;;;;;3.05;1.88;;;4.80;46.40;;;;;;5050935;28;20186;-68
2022/02/08 08:57:37;;;;;;;2.40;1.65;;;4.90;46.60;;;;;;5050720;28;20186;-68
2022/02/08 09:00:07;;;;;;;4.65;2.17;;;5.00;46.60;;;;;;5050237;28;20304;-69
2022/02/08 09:02:37;;;;;;;2.03;1.20;;;5.30;47.30;;;;;;5050326;28;20244;-68
2022/02/08 09:05:08;;;;;;;2.10;1.05;;;5.40;46.50;;;;;;5050482;28;20190;-68
2022/02/08 09:07:36;;;;;;;4.03;1.20;;;5.60;47.90;;;;;;5050635;28;20226;-68
2022/02/08 09:10:04;;;;;;;1.77;0.70;;;6.00;46.10;;;;;;5049324;28;20194;-68
2022/02/08 09:12:55;;;;;;;2.42;0.93;;;6.30;43.80;;;;;;5050528;28;20194;-68
2022/02/08 09:15:44;;;;;;;2.05;1.38;;;6.60;42.40;;;;;;5050460;28;20862;-68
2022/02/08 09:21:28;;;;;;;5.97;3.40;;;8.00;39.10;;;;;;5018885;28;20252;-69
2022/02/08 09:29:37;;;;;;;3.15;1.75;;;7.90;40.00;;;;;;5050320;28;20189;-69
2022/02/08 09:32:14;;;;;;;3.45;1.80;;;7.80;39.70;;;;;;5046777;28;20279;-68
2022/02/08 09:34:42;;;;;;;4.60;2.28;;;7.60;41.10;;;;;;5049723;28;20190;-68
2022/02/08 09:37:11;;;;;;;2.85;1.77;;;7.40;40.80;;;;;;5050071;28;20202;-68
2022/02/08 09:39:39;;;;;;;3.38;1.98;;;7.50;41.90;;;;;;5049677;28;20191;-68
2022/02/08 09:42:07;;;;;;;6.57;2.47;;;7.40;41.70;;;;;;5050397;28;20190;-68
2022/02/08 09:44:36;;;;;;;3.47;1.20;;;7.30;42.10;;;;;;5050042;28;20240;-69
2022/02/08 09:47:10;;;;;;;6.25;1.83;;;7.30;42.20;;;;;;5046553;28;20187;-68
2022/02/08 09:49:42;;;;;;;3.35;1.40;;;7.20;41.30;;;;;;5047736;28;20755;-68
2022/02/08 09:52:11;;;;;;;3.22;2.60;;;7.40;41.50;;;;;;5050174;28;20190;-69
2022/02/08 09:54:38;;;;;;;2.95;1.13;;;8.00;41.70;;;;;;5049260;28;20194;-68
2022/02/08 09:57:05;;;;;;;2.30;0.90;;;10.10;39.70;;;;;;5050811;28;20199;-68
2022/02/08 09:59:41;;;;;;;2.38;1.13;;;11.90;36.90;;;;;;5048943;28;20240;-69
2022/02/08 10:02:10;;;;;;;2.67;1.65;;;12.60;33.50;;;;;;5047545;28;20232;-69
2022/02/08 10:04:37;;;;;;;2.45;1.52;;;12.30;31.50;;;;;;5050557;28;20533;-68
2022/02/08 10:07:11;;;;;;;2.40;1.35;;;12.00;33.00;;;;;;5049127;28;20191;-68
2022/02/08 10:09:39;;;;;;;3.00;1.48;;;12.90;32.40;;;;;;5049033;28;20867;-68
2022/02/08 10:12:08;;;;;;;2.75;1.73;;;12.80;31.20;;;;;;5044495;28;20190;-67
2022/02/08 10:18:54;;;;;;;5.53;3.40;;;12.60;30.60;;;;;;5047194;28;20206;-68
2022/02/08 10:21:38;;;;;;;2.78;1.60;;;12.60;30.00;;;;;;5049913;28;20225;-69
2022/02/08 10:23:39;;;;;;;3.30;1.67;;;12.50;29.90;;;;;;5052266;28;20206;-68
2022/02/08 10:26:21;;;;;;;4.68;1.30;;;12.40;30.50;;;;;;5053249;28;20607;-71
2022/02/08 10:28:57;;;;;;;2.45;1.50;;;12.90;30.80;;;;;;5052189;28;20560;-68
2022/02/08 10:31:46;;;;;;;4.18;1.95;;;13.30;30.00;;;;;;5052914;28;20652;-68
2022/02/08 10:40:05;;;;;;;4.63;1.80;;;15.70;28.30;;;;;;5030301;28;20854;-71
2022/02/08 10:42:33;;;;;;;4.60;1.97;;;15.20;27.70;;;;;;5038267;28;20198;-69
2022/02/08 10:45:03;;;;;;;2.77;1.50;;;14.60;27.80;;;;;;5052326;28;20438;-69
2022/02/08 10:47:38;;;;;;;4.23;2.70;;;14.00;28.40;;;;;;5048935;28;20506;-69
2022/02/08 10:50:10;;;;;;;7.35;2.88;;;13.60;29.80;;;;;;5053015;28;20512;-68
2022/02/08 10:52:41;;;;;;;8.77;4.95;;;13.40;31.10;;;;;;5052829;28;20228;-68
2022/02/08 10:55:18;;;;;;;6.35;3.35;;;13.50;31.60;;;;;;5052165;28;20186;-68
2022/02/08 10:57:53;;;;;;;5.35;4.20;;;13.90;30.80;;;;;;5052711;28;20190;-70
2022/02/08 11:00:26;;;;;;;3.97;2.10;;;14.50;30.60;;;;;;5047389;28;20229;-69
2022/02/08 11:02:57;;;;;;;3.80;1.63;;;16.10;29.80;;;;;;5050991;28;20440;-69
2022/02/08 11:05:37;;;;;;;3.00;1.33;;;19.60;25.60;;;;;;5049775;28;20476;-67
2022/02/08 11:08:18;;;;;;;3.33;1.70;;;23.40;23.20;;;;;;5050942;28;20524;-68
2022/02/08 11:13:43;;;;;;;3.10;1.70;;;22.70;17.30;;;;;;5045318;28;20421;-66
2022/02/08 11:16:24;;;;;;;2.70;1.60;;;21.70;18.90;;;;;;5047139;28;20524;-69
2022/02/08 11:21:55;;;;;;;2.93;1.20;;;25.90;17.30;;;;;;5048838;28;20472;-67
2022/02/08 11:24:32;;;;;;;3.53;1.10;;;28.30;15.10;;;;;;5047659;28;20515;-67
2022/02/08 11:27:09;;;;;;;4.70;3.20;;;29.10;13.50;;;;;;5051627;28;20445;-67
2022/02/08 11:29:41;;;;;;;7.10;4.30;;;30.70;13.70;;;;;;5052080;28;20443;-67
2022/02/08 11:32:21;;;;;;;2.57;1.23;;;32.10;11.40;;;;;;5052258;28;20480;-67
2022/02/08 11:42:03;;;;;;;2.57;1.30;;;33.20;11.40;;;;;;5051162;28;20949;-67
2022/02/08 11:44:05;;;;;;;3.13;1.20;;;35.00;9.70;;;;;;5048993;28;20429;-75
2022/02/08 11:46:50;;;;;;;3.40;1.23;;;36.90;10.20;;;;;;5049862;28;20464;-70
2022/02/08 11:49:41;;;;;;;2.43;1.00;;;37.70;8.30;;;;;;5051261;28;20435;-67
2022/02/08 11:58:16;;;;;;;4.90;1.20;;;35.60;7.70;;;;;;5028849;28;20535;-67
2022/02/08 12:00:45;;;;;;;3.03;0.90;;;33.00;7.90;;;;;;5046119;28;20922;-67
2022/02/08 12:06:24;;;;;;;2.00;1.00;;;28.50;9.00;;;;;;5036959;28;20429;-67
2022/02/08 12:08:56;;;;;;;1.90;0.90;;;26.30;9.60;;;;;;5047827;28;20452;-67
2022/02/08 12:11:45;;;;;;;2.57;1.10;;;24.70;11.20;;;;;;5051719;28;20819;-67
2022/02/08 12:29:41;;;;;;;2.03;0.90;;;24.50;11.30;;;;;;5048159;28;20938;-68
2022/02/08 12:34:37;;;;;;;2.83;1.20;;;28.30;11.70;;;;;;5066196;28;20466;-67
2022/02/08 12:54:35;;;;;;;7.30;1.70;;;25.40;11.60;;;;;;5149375;27;21076;-67
2022/02/08 12:57:16;;;;;;;2.30;1.03;;;24.40;12.40;;;;;;5149026;27;20519;-67
2022/02/08 13:02:45;;;;;;;2.47;1.03;;;24.70;13.20;;;;;;5149433;27;20405;-69
2022/02/08 13:05:52;;;;;;;2.30;1.13;;;24.40;12.80;;;;;;5148680;27;20436;-69
2022/02/08 14:06:20;;;;;;;2.50;1.20;;;21.60;15.60;;;;;;5132368;27;20787;-67
2022/02/08 14:14:33;;;;;;;3.00;0.73;;;20.60;15.20;;;;;;5134267;27;20471;-68
2022/02/08 14:17:28;;;;;;;1.60;0.73;;;20.10;14.90;;;;;;5134771;27;20485;-67
2022/02/08 14:20:16;;;;;;;3.30;0.97;;;19.70;15.60;;;;;;5132166;27;20533;-69
2022/02/08 14:23:08;;;;;;;4.17;1.00;;;19.30;16.80;;;;;;5134087;27;20432;-68
2022/02/08 14:25:47;;;;;;;6.30;1.03;;;18.80;15.60;;;;;;5134134;27;20465;-68
2022/02/08 14:31:06;;;;;;;1.80;0.70;;;17.90;15.70;;;;;;5134070;27;20420;-68
2022/02/08 14:34:06;;;;;;;2.30;0.90;;;17.50;16.30;;;;;;5134414;27;20827;-67
2022/02/08 14:36:52;;;;;;;2.77;1.20;;;17.20;16.70;;;;;;5133102;27;20469;-67
2022/02/08 15:07:49;;;;;;;2.90;0.90;;;13.80;17.40;;;;;;5130367;27;20464;-67
2022/02/08 15:10:08;;;;;;;3.13;0.70;;;13.60;17.90;;;;;;5132007;27;20531;-67
2022/02/08 15:12:40;;;;;;;2.80;1.13;;;13.40;18.60;;;;;;5133054;27;20970;-67
2022/02/08 15:15:17;;;;;;;2.13;1.13;;;13.20;18.30;;;;;;5133040;27;20478;-67
2022/02/08 15:17:44;;;;;;;2.10;0.87;;;13.00;18.40;;;;;;5132751;27;20541;-67
2022/02/08 15:20:12;;;;;;;4.38;2.78;;;12.80;18.90;;;;;;5132836;27;20816;-67
2022/02/08 15:22:41;;;;;;;2.38;1.27;;;12.70;19.20;;;;;;5133962;27;20199;-67
2022/02/08 15:25:12;;;;;;;2.45;1.30;;;12.50;19.70;;;;;;5133000;27;20195;-67
2022/02/08 15:27:40;;;;;;;2.70;1.30;;;12.40;19.80;;;;;;5128950;27;20184;-68
2022/02/08 15:30:09;;;;;;;2.25;0.90;;;12.30;20.00;;;;;;5132474;27;20188;-68
2022/02/08 15:32:36;;;;;;;2.30;1.35;;;12.20;20.20;;;;;;5132635;27;20186;-68
2022/02/08 15:35:04;;;;;;;3.17;1.17;;;12.10;20.80;;;;;;5131850;27;20194;-67
2022/02/08 15:37:31;;;;;;;2.35;1.40;;;12.10;20.70;;;;;;5131950;27;20180;-67
2022/02/08 15:40:02;;;;;;;2.75;1.17;;;12.10;20.60;;;;;;5133309;27;20199;-67
2022/02/08 15:42:31;;;;;;;3.15;0.88;;;12.00;21.00;;;;;;5132375;27;20179;-68
2022/02/08 15:45:02;;;;;;;3.08;1.25;;;11.90;20.90;;;;;;5127832;27;20188;-68
2022/02/08 15:47:30;;;;;;;5.10;1.27;;;11.80;21.40;;;;;;5132840;27;20278;-67
2022/02/08 15:50:00;;;;;;;2.65;1.10;;;11.70;21.70;;;;;;5132028;27;20227;-68
2022/02/08 15:52:44;;;;;;;2.58;1.20;;;11.60;21.90;;;;;;5128668;27;20635;-67
2022/02/08 15:55:27;;;;;;;4.78;1.35;;;11.50;22.50;;;;;;5131850;27;20284;-68
2022/02/08 15:58:07;;;;;;;3.35;1.02;;;11.40;22.70;;;;;;5131993;27;20187;-67
2022/02/08 16:06:38;;;;;;;2.55;1.33;;;11.00;23.40;;;;;;5127999;27;20203;-67
2022/02/08 16:08:57;;;;;;;5.22;2.70;;;10.90;23.40;;;;;;5131172;27;20194;-67
2022/02/08 16:11:48;;;;;;;19.45;10.05;;;10.70;24.00;;;;;;5131624;27;20279;-67
2022/02/08 16:14:26;;;;;;;9.02;5.05;;;10.70;24.10;;;;;;5130809;27;20187;-67
2022/02/08 16:17:03;;;;;;;6.65;2.70;;;10.60;24.60;;;;;;5131017;27;20194;-67
2022/02/08 16:19:44;;;;;;;4.10;2.70;;;10.40;24.70;;;;;;5132216;27;20187;-68
2022/02/08 16:22:32;;;;;;;5.90;2.80;;;10.30;24.90;;;;;;5131750;27;20184;-66
2022/02/08 16:25:07;;;;;;;4.90;2.55;;;10.20;25.10;;;;;;5129886;27;20180;-67
2022/02/08 16:27:48;;;;;;;3.72;2.55;;;10.20;25.60;;;;;;5131072;27;20642;-68
2022/02/08 16:53:19;;;;;;;7.35;4.97;;;8.90;29.20;;;;;;5041098;28;20595;-67
2022/02/08 16:55:54;;;;;;;10.18;5.82;;;8.80;29.40;;;;;;5067620;28;20189;-66
2022/02/08 16:58:29;;;;;;;12.23;6.85;;;8.60;30.40;;;;;;5068205;28;20279;-67
2022/02/08 17:01:01;;;;;;;7.47;4.30;;;8.50;31.50;;;;;;5068430;28;20238;-67
2022/02/08 17:03:32;;;;;;;6.38;3.30;;;8.20;33.60;;;;;;5068696;28;20283;-67
2022/02/08 17:05:59;;;;;;;5.60;1.83;;;8.10;33.80;;;;;;5068545;28;20185;-68
2022/02/08 17:08:27;;;;;;;6.00;3.90;;;7.80;36.40;;;;;;5068196;28;20643;-67
2022/02/08 17:10:58;;;;;;;6.38;2.78;;;7.50;37.50;;;;;;5068327;28;20197;-67
2022/02/08 17:13:48;;;;;;;6.25;3.22;;;7.40;38.10;;;;;;5066635;28;20185;-67
2022/02/08 17:16:25;;;;;;;12.63;6.35;;;7.30;37.90;;;;;;5068553;28;20217;-67
2022/02/08 17:46:40;;;;;;;9.90;6.15;;;6.30;43.20;;;;;;5071187;28;20285;-67
2022/02/08 17:49:09;;;;;;;6.95;5.22;;;6.20;43.20;;;;;;5070038;28;20209;-67
2022/02/08 17:51:36;;;;;;;6.57;4.72;;;6.10;42.70;;;;;;5071673;28;20213;-67
2022/02/08 17:54:04;;;;;;;10.02;6.35;;;6.00;43.30;;;;;;5071139;28;20214;-66
2022/02/08 17:56:31;;;;;;;12.07;6.90;;;6.00;42.40;;;;;;5071841;28;20636;-66
2022/02/08 17:58:58;;;;;;;13.80;8.18;;;6.00;42.80;;;;;;5071596;28;20643;-72
2022/02/08 18:01:26;;;;;;;10.85;7.82;;;5.90;43.40;;;;;;5068474;28;20712;-67
2022/02/08 18:03:53;;;;;;;14.48;7.28;;;5.90;43.50;;;;;;5071467;28;21253;-67
2022/02/08 18:06:21;;;;;;;8.93;6.60;;;5.90;43.90;;;;;;5070028;28;20181;-66
2022/02/08 18:08:48;;;;;;;12.68;9.98;;;5.80;44.20;;;;;;5071456;28;20201;-67
2022/02/08 18:11:15;;;;;;;13.20;7.90;;;5.70;45.20;;;;;;5070941;28;20225;-69
2022/02/08 18:13:44;;;;;;;13.70;8.38;;;5.70;45.00;;;;;;5071550;28;20209;-67
2022/02/08 18:16:11;;;;;;;13.60;9.18;;;5.60;45.20;;;;;;5071341;28;20190;-68
2022/02/08 18:18:43;;;;;;;10.77;8.02;;;5.50;45.10;;;;;;5070819;28;20277;-66
2022/02/08 18:21:16;;;;;;;12.80;6.78;;;5.50;45.70;;;;;;5066583;28;20186;-67
2022/02/08 18:24:13;;;;;;;6.55;5.35;;;5.40;46.50;;;;;;5070688;28;20224;-66